Time;durP1;ratioP1;P1;durP2;ratioP2;P2;SDS_P1;SDS_P2;PMS_P1;PMS_P2;Temp;Humidity;BMP_temperature;BMP_pressure;BME280_temperature;BME280_humidity;BME280_pressure;Samples;Min_cycle;Max_cycle;Signal;HPM_P1;HPM_P2
2022/06/05 00:00:09;;;;;;;13.00;4.97;;;;;;;;;;5101598;28;20208;-69
2022/06/05 00:02:45;;;;;;;14.30;4.33;;;;;;;;;;5101623;28;20217;-69
2022/06/05 00:05:16;;;;;;;11.57;3.73;;;;;;;;;;5101359;28;20692;-70
2022/06/05 00:07:46;;;;;;;7.73;3.37;;;;;;;;;;5101130;28;20236;-69
2022/06/05 00:10:17;;;;;;;7.90;3.87;;;;;;;;;;5101519;28;20271;-69
2022/06/05 00:12:47;;;;;;;9.43;3.40;;;;;;;;;;5101539;28;20235;-69
2022/06/05 00:15:15;;;;;;;11.83;3.83;;;;;;;;;;5101030;28;20234;-69
2022/06/05 00:17:45;;;;;;;9.27;3.50;;;;;;;;;;5101257;28;20213;-69
2022/06/05 00:20:13;;;;;;;9.60;3.00;;;;;;;;;;5101228;28;20239;-69
2022/06/05 00:22:41;;;;;;;12.20;3.67;;;;;;;;;;5100787;28;20238;-69
2022/06/05 00:25:10;;;;;;;11.27;3.40;;;;;;;;;;5101139;28;20257;-69
2022/06/05 00:27:41;;;;;;;7.03;2.70;;;;;;;;;;5100870;28;20694;-69
2022/06/05 00:30:13;;;;;;;10.33;2.27;;;;;;;;;;5100936;28;20271;-69
2022/06/05 00:32:43;;;;;;;7.67;2.80;;;;;;;;;;5101067;28;20204;-69
2022/06/05 00:35:16;;;;;;;7.63;2.70;;;;;;;;;;5100563;28;20676;-69
2022/06/05 00:37:49;;;;;;;3.30;1.57;;;;;;;;;;5100641;28;20207;-69
2022/06/05 00:40:29;;;;;;;3.83;1.47;;;;;;;;;;5097480;28;20209;-69
2022/06/05 00:42:58;;;;;;;4.73;1.60;;;;;;;;;;5101277;28;20331;-69
2022/06/05 00:45:27;;;;;;;1.93;1.53;;;;;;;;;;5101009;28;20265;-69
2022/06/05 00:47:55;;;;;;;3.00;1.40;;;;;;;;;;5100644;28;20237;-69
2022/06/05 00:50:27;;;;;;;4.63;1.17;;;;;;;;;;5100428;28;20265;-69
2022/06/05 00:52:57;;;;;;;2.53;1.40;;;;;;;;;;5100503;28;20207;-69
2022/06/05 00:55:26;;;;;;;3.23;0.87;;;;;;;;;;5100691;28;20261;-69
2022/06/05 00:57:55;;;;;;;1.03;0.60;;;;;;;;;;5100525;28;20214;-69
2022/06/05 01:00:24;;;;;;;0.80;0.60;;;;;;;;;;5100328;28;20241;-69
2022/06/05 01:02:55;;;;;;;0.50;0.50;;;;;;;;;;5100221;28;20313;-69
2022/06/05 01:05:23;;;;;;;1.60;0.70;;;;;;;;;;5100432;28;20209;-69
2022/06/05 01:07:53;;;;;;;0.97;0.60;;;;;;;;;;5100064;28;20208;-69
2022/06/05 01:10:22;;;;;;;2.10;0.70;;;;;;;;;;5100287;28;20236;-69
2022/06/05 01:12:54;;;;;;;0.77;0.70;;;;;;;;;;5100167;28;20209;-69
2022/06/05 01:15:24;;;;;;;0.40;0.40;;;;;;;;;;5099880;28;20653;-69
2022/06/05 01:17:55;;;;;;;2.57;0.30;;;;;;;;;;5100128;28;20202;-69
2022/06/05 01:20:30;;;;;;;2.07;0.50;;;;;;;;;;5093210;28;20202;-69
2022/06/05 01:23:14;;;;;;;0.87;0.60;;;;;;;;;;5099742;28;20634;-70
2022/06/05 01:26:00;;;;;;;1.80;0.50;;;;;;;;;;5099934;28;20309;-70
2022/06/05 01:28:31;;;;;;;1.10;0.57;;;;;;;;;;5100036;28;20239;-69
2022/06/05 01:31:03;;;;;;;0.93;0.50;;;;;;;;;;5099695;28;20265;-70
2022/06/05 01:33:32;;;;;;;0.20;0.20;;;;;;;;;;5099575;28;20209;-69
2022/06/05 01:36:03;;;;;;;2.47;0.50;;;;;;;;;;5099484;28;20716;-69
2022/06/05 01:38:36;;;;;;;0.83;0.60;;;;;;;;;;5099855;28;20201;-69
2022/06/05 01:41:07;;;;;;;0.40;0.40;;;;;;;;;;5095979;28;20201;-69
2022/06/05 01:43:38;;;;;;;0.40;0.40;;;;;;;;;;5099365;28;20580;-70
2022/06/05 01:46:09;;;;;;;0.60;0.50;;;;;;;;;;5099298;28;20221;-69
2022/06/05 01:48:40;;;;;;;0.60;0.50;;;;;;;;;;5099335;28;20262;-69
2022/06/05 01:51:11;;;;;;;3.40;0.60;;;;;;;;;;5099220;28;20253;-69
2022/06/05 01:53:41;;;;;;;0.47;0.40;;;;;;;;;;5099370;28;20227;-69
2022/06/05 01:56:11;;;;;;;0.50;0.50;;;;;;;;;;5099603;28;20225;-70
2022/06/05 01:58:41;;;;;;;0.50;0.50;;;;;;;;;;5099598;28;20239;-71
2022/06/05 02:01:10;;;;;;;0.63;0.40;;;;;;;;;;5098599;28;20205;-69
2022/06/05 02:03:41;;;;;;;0.90;0.40;;;;;;;;;;5099206;28;20548;-71
2022/06/05 02:06:12;;;;;;;0.63;0.63;;;;;;;;;;5098485;28;20223;-71
2022/06/05 02:08:45;;;;;;;2.13;0.40;;;;;;;;;;5099173;28;20205;-71
2022/06/05 02:11:16;;;;;;;2.00;0.53;;;;;;;;;;5098769;28;20712;-69
2022/06/05 02:13:46;;;;;;;0.70;0.40;;;;;;;;;;5098800;28;20677;-71
2022/06/05 02:16:14;;;;;;;0.97;0.50;;;;;;;;;;5098562;28;20585;-71
2022/06/05 02:18:42;;;;;;;1.30;0.30;;;;;;;;;;5098889;28;20220;-71
2022/06/05 02:21:10;;;;;;;0.70;0.37;;;;;;;;;;5098450;28;20224;-69
2022/06/05 02:23:40;;;;;;;0.47;0.47;;;;;;;;;;5099025;28;20209;-71
2022/06/05 02:26:10;;;;;;;0.40;0.40;;;;;;;;;;5098476;28;20704;-71
2022/06/05 02:28:39;;;;;;;4.10;0.80;;;;;;;;;;5099039;28;20243;-71
2022/06/05 02:31:12;;;;;;;1.47;0.90;;;;;;;;;;5099442;28;20342;-71
2022/06/05 02:33:44;;;;;;;2.10;0.67;;;;;;;;;;5098884;28;20206;-70
2022/06/05 02:36:16;;;;;;;3.20;0.60;;;;;;;;;;5098693;28;20226;-70
2022/06/05 02:38:46;;;;;;;1.33;0.40;;;;;;;;;;5098688;28;20208;-71
2022/06/05 02:41:17;;;;;;;0.83;0.40;;;;;;;;;;5095926;28;20252;-71
2022/06/05 02:44:28;;;;;;;3.20;0.50;;;;;;;;;;5098519;28;20242;-70
2022/06/05 02:46:43;;;;;;;1.30;0.57;;;;;;;;;;5098166;28;20275;-71
2022/06/05 02:49:13;;;;;;;2.10;0.90;;;;;;;;;;5098178;28;20320;-71
2022/06/05 02:51:43;;;;;;;1.20;0.70;;;;;;;;;;5097800;28;20704;-71
2022/06/05 02:54:19;;;;;;;1.67;0.90;;;;;;;;;;5098323;28;20207;-71
2022/06/05 02:56:47;;;;;;;0.80;0.60;;;;;;;;;;5097996;28;20258;-71
2022/06/05 02:59:15;;;;;;;1.80;0.70;;;;;;;;;;5098308;28;20245;-69
2022/06/05 03:04:30;;;;;;;1.33;0.57;;;;;;;;;;5098252;28;20245;-69
2022/06/05 03:06:59;;;;;;;0.80;0.80;;;;;;;;;;5097528;28;20708;-69
2022/06/05 03:09:27;;;;;;;2.03;0.70;;;;;;;;;;5097703;28;20212;-69
2022/06/05 03:11:55;;;;;;;0.63;0.60;;;;;;;;;;5097668;28;20591;-69
2022/06/05 03:14:23;;;;;;;0.90;0.50;;;;;;;;;;5098132;28;20208;-69
2022/06/05 03:16:52;;;;;;;3.23;0.50;;;;;;;;;;5098057;28;20232;-68
2022/06/05 03:19:20;;;;;;;1.37;0.30;;;;;;;;;;5098048;28;20247;-68
2022/06/05 03:21:48;;;;;;;0.60;0.40;;;;;;;;;;5097734;28;20206;-68
2022/06/05 03:24:16;;;;;;;1.90;0.50;;;;;;;;;;5097920;28;20207;-68
2022/06/05 03:26:45;;;;;;;0.50;0.50;;;;;;;;;;5097693;28;20254;-68
2022/06/05 03:29:13;;;;;;;1.40;0.70;;;;;;;;;;5116997;28;20213;-69
2022/06/05 03:31:41;;;;;;;0.97;0.50;;;;;;;;;;5104017;28;20712;-68
2022/06/05 03:34:11;;;;;;;3.00;0.70;;;;;;;;;;5097686;28;20214;-69
2022/06/05 03:36:39;;;;;;;1.80;0.80;;;;;;;;;;5097518;28;20225;-70
2022/06/05 03:39:07;;;;;;;1.13;0.77;;;;;;;;;;5097477;28;20218;-70
2022/06/05 03:41:34;;;;;;;1.20;0.60;;;;;;;;;;5094601;28;20644;-70
2022/06/05 03:44:02;;;;;;;1.20;0.60;;;;;;;;;;5097667;28;20202;-70
2022/06/05 03:46:31;;;;;;;0.53;0.47;;;;;;;;;;5097650;28;20279;-70
2022/06/05 03:48:59;;;;;;;1.60;0.60;;;;;;;;;;5097563;28;20316;-70
2022/06/05 03:51:28;;;;;;;1.00;0.57;;;;;;;;;;5098124;28;20194;-70
2022/06/05 03:53:56;;;;;;;0.50;0.50;;;;;;;;;;5106756;28;20243;-68
2022/06/05 03:56:25;;;;;;;2.53;0.73;;;;;;;;;;5105372;28;20654;-68
2022/06/05 03:58:53;;;;;;;0.80;0.80;;;;;;;;;;5113049;28;20236;-70
2022/06/05 04:01:22;;;;;;;0.40;0.40;;;;;;;;;;5099425;28;20201;-70
2022/06/05 04:03:51;;;;;;;1.17;0.50;;;;;;;;;;5097591;28;20205;-70
2022/06/05 04:06:22;;;;;;;2.30;0.60;;;;;;;;;;5097223;28;20222;-70
2022/06/05 04:08:51;;;;;;;1.90;0.60;;;;;;;;;;5110375;28;20201;-70
2022/06/05 04:11:20;;;;;;;1.70;0.63;;;;;;;;;;5117636;28;20232;-71
2022/06/05 04:13:48;;;;;;;1.77;0.60;;;;;;;;;;5105191;28;20229;-69
2022/06/05 04:16:17;;;;;;;0.40;0.40;;;;;;;;;;5106546;28;20610;-69
2022/06/05 04:18:45;;;;;;;1.53;0.50;;;;;;;;;;5096879;28;20564;-69
2022/06/05 04:21:15;;;;;;;0.33;0.30;;;;;;;;;;5096862;28;20318;-69
2022/06/05 04:23:43;;;;;;;0.97;0.70;;;;;;;;;;5097342;28;20235;-68
2022/06/05 04:26:14;;;;;;;3.30;0.80;;;;;;;;;;5100561;28;20277;-68
2022/06/05 04:28:42;;;;;;;2.00;1.90;;;;;;;;;;5115894;28;20242;-69
2022/06/05 04:31:17;;;;;;;0.80;0.50;;;;;;;;;;5100685;28;20261;-69
2022/06/05 04:33:45;;;;;;;2.93;1.80;;;;;;;;;;5102048;28;20231;-69
2022/06/05 04:36:13;;;;;;;8.70;2.00;;;;;;;;;;5099393;28;20224;-69
2022/06/05 04:38:44;;;;;;;5.23;2.10;;;;;;;;;;5100715;28;20201;-69
2022/06/05 04:41:14;;;;;;;8.73;2.10;;;;;;;;;;5097328;28;20255;-69
2022/06/05 04:43:42;;;;;;;11.20;2.27;;;;;;;;;;5104168;28;20224;-69
2022/06/05 04:46:11;;;;;;;2.10;1.23;;;;;;;;;;5109163;28;20272;-69
2022/06/05 04:48:39;;;;;;;3.67;0.87;;;;;;;;;;5102943;28;20231;-70
2022/06/05 04:51:08;;;;;;;1.47;0.80;;;;;;;;;;5099927;28;20233;-71
2022/06/05 04:53:37;;;;;;;1.70;0.83;;;;;;;;;;5100533;28;20230;-71
2022/06/05 04:56:08;;;;;;;2.87;1.40;;;;;;;;;;5099738;28;20267;-72
2022/06/05 04:58:38;;;;;;;6.00;1.27;;;;;;;;;;5099638;28;20237;-71
2022/06/05 05:01:11;;;;;;;1.67;1.40;;;;;;;;;;5097169;28;20637;-71
2022/06/05 05:03:39;;;;;;;2.23;0.90;;;;;;;;;;5100166;28;20207;-71
2022/06/05 05:06:08;;;;;;;1.60;0.83;;;;;;;;;;5099419;28;20268;-71
2022/06/05 05:08:36;;;;;;;2.57;1.53;;;;;;;;;;5099307;28;20651;-71
2022/06/05 05:11:04;;;;;;;1.83;1.20;;;;;;;;;;5100663;28;20202;-71
2022/06/05 05:13:32;;;;;;;2.07;0.90;;;;;;;;;;5120932;28;20227;-71
2022/06/05 05:16:02;;;;;;;2.30;0.90;;;;;;;;;;5117439;28;20263;-71
2022/06/05 05:18:30;;;;;;;1.37;0.70;;;;;;;;;;5100271;28;20660;-72
2022/06/05 05:21:04;;;;;;;2.83;1.07;;;;;;;;;;5099962;28;20216;-72
2022/06/05 05:23:32;;;;;;;1.50;0.80;;;;;;;;;;5100117;28;20244;-72
2022/06/05 05:26:08;;;;;;;2.87;0.97;;;;;;;;;;5099897;28;20263;-71
2022/06/05 05:28:36;;;;;;;1.27;0.90;;;;;;;;;;5100226;28;20290;-70
2022/06/05 05:31:08;;;;;;;3.20;0.80;;;;;;;;;;5100185;28;20238;-71
2022/06/05 05:33:36;;;;;;;0.73;0.70;;;;;;;;;;5099674;28;20270;-71
2022/06/05 05:36:05;;;;;;;5.87;1.10;;;;;;;;;;5098231;28;20788;-71
2022/06/05 05:38:33;;;;;;;1.27;1.00;;;;;;;;;;5099762;28;20205;-71
2022/06/05 05:43:47;;;;;;;1.47;1.00;;;;;;;;;;5099697;28;20210;-72
2022/06/05 05:46:17;;;;;;;2.13;0.80;;;;;;;;;;5099743;28;20263;-72
2022/06/05 05:48:45;;;;;;;1.67;0.90;;;;;;;;;;5099435;28;20261;-72
2022/06/05 05:51:13;;;;;;;0.70;0.70;;;;;;;;;;5099311;28;20246;-71
2022/06/05 05:53:41;;;;;;;2.20;0.80;;;;;;;;;;5099499;28;20266;-72
2022/06/05 05:56:10;;;;;;;2.53;0.80;;;;;;;;;;5099552;28;20234;-72
2022/06/05 05:58:40;;;;;;;0.90;0.60;;;;;;;;;;5099422;28;20237;-72
2022/06/05 06:01:10;;;;;;;1.10;0.87;;;;;;;;;;5099138;28;20257;-71
2022/06/05 06:03:39;;;;;;;2.63;1.60;;;;;;;;;;5097244;28;20246;-72
2022/06/05 06:06:08;;;;;;;1.47;0.80;;;;;;;;;;5091118;28;20224;-73
2022/06/05 06:08:36;;;;;;;2.60;0.93;;;;;;;;;;5092994;28;20609;-72
2022/06/05 06:11:04;;;;;;;2.40;1.13;;;;;;;;;;5116749;28;20240;-72
2022/06/05 06:13:32;;;;;;;1.17;0.70;;;;;;;;;;5098923;28;20228;-72
2022/06/05 06:16:01;;;;;;;5.20;1.17;;;;;;;;;;5098534;28;20244;-75
2022/06/05 06:18:29;;;;;;;1.83;1.10;;;;;;;;;;5109651;28;20214;-74
2022/06/05 06:20:59;;;;;;;0.70;0.70;;;;;;;;;;5098363;28;20201;-74
2022/06/05 06:23:27;;;;;;;2.30;0.90;;;;;;;;;;5101839;28;20232;-74
2022/06/05 06:25:55;;;;;;;3.07;0.80;;;;;;;;;;5099000;28;20250;-74
2022/06/05 06:28:23;;;;;;;1.50;0.80;;;;;;;;;;5118879;27;20200;-74
2022/06/05 06:30:51;;;;;;;0.90;0.70;;;;;;;;;;5118836;28;20233;-74
2022/06/05 06:33:19;;;;;;;1.10;0.80;;;;;;;;;;5119059;28;20239;-74
2022/06/05 06:35:47;;;;;;;3.00;0.90;;;;;;;;;;5100643;28;20226;-74
2022/06/05 06:38:16;;;;;;;1.63;0.80;;;;;;;;;;5092152;28;20234;-74
2022/06/05 06:40:44;;;;;;;1.13;0.80;;;;;;;;;;5095889;28;20239;-74
2022/06/05 06:43:19;;;;;;;0.93;0.80;;;;;;;;;;5097272;28;20189;-74
2022/06/05 06:45:47;;;;;;;1.17;0.80;;;;;;;;;;5107204;28;20264;-74
2022/06/05 06:48:16;;;;;;;0.83;0.73;;;;;;;;;;5097699;28;20247;-73
2022/06/05 06:50:45;;;;;;;2.83;0.90;;;;;;;;;;5102790;28;20237;-74
2022/06/05 06:53:13;;;;;;;2.27;1.27;;;;;;;;;;5118219;28;20226;-73
2022/06/05 06:55:42;;;;;;;2.10;1.10;;;;;;;;;;5099434;27;20234;-74
2022/06/05 06:58:10;;;;;;;1.17;0.80;;;;;;;;;;5097760;28;20618;-74
2022/06/05 07:00:38;;;;;;;0.97;0.77;;;;;;;;;;5093720;28;20210;-74
2022/06/05 07:03:06;;;;;;;0.80;0.80;;;;;;;;;;5098023;28;20245;-74
2022/06/05 07:05:35;;;;;;;2.90;0.67;;;;;;;;;;5097721;28;20224;-74
2022/06/05 07:08:03;;;;;;;4.63;1.10;;;;;;;;;;5094821;28;20199;-74
2022/06/05 07:10:31;;;;;;;2.57;0.77;;;;;;;;;;5098609;28;20228;-74
2022/06/05 07:13:01;;;;;;;3.90;1.13;;;;;;;;;;5101093;28;20692;-71
2022/06/05 07:15:34;;;;;;;3.70;0.90;;;;;;;;;;5116501;28;20335;-72
2022/06/05 07:18:02;;;;;;;2.20;1.00;;;;;;;;;;5097596;28;20636;-73
2022/06/05 07:20:32;;;;;;;1.97;1.10;;;;;;;;;;5097164;28;20239;-74
2022/06/05 07:23:01;;;;;;;4.40;1.40;;;;;;;;;;5097508;28;20204;-71
2022/06/05 07:25:29;;;;;;;1.23;0.80;;;;;;;;;;5097644;28;20243;-71
2022/06/05 07:27:57;;;;;;;1.00;1.00;;;;;;;;;;5097692;28;20246;-71
2022/06/05 07:30:26;;;;;;;1.07;0.97;;;;;;;;;;5097317;28;20680;-71
2022/06/05 07:32:54;;;;;;;2.97;1.10;;;;;;;;;;5097584;28;20209;-71
2022/06/05 07:35:23;;;;;;;1.83;1.30;;;;;;;;;;5097226;28;20226;-71
2022/06/05 07:37:51;;;;;;;2.37;1.20;;;;;;;;;;5097225;28;20273;-71
2022/06/05 07:40:39;;;;;;;3.97;1.10;;;;;;;;;;5094026;28;20287;-70
2022/06/05 07:43:09;;;;;;;1.10;1.00;;;;;;;;;;5097451;28;20707;-74
2022/06/05 07:45:39;;;;;;;3.13;1.30;;;;;;;;;;5096767;28;20692;-74
2022/06/05 07:48:07;;;;;;;1.70;1.03;;;;;;;;;;5096857;28;20229;-74
2022/06/05 07:54:26;;;;;;;2.07;1.10;;;;;;;;;;5097015;28;20199;-74
2022/06/05 07:56:09;;;;;;;0.90;0.90;;;;;;;;;;5084514;28;20706;-74
2022/06/05 07:58:37;;;;;;;2.03;1.33;;;;;;;;;;5096954;28;20239;-74
2022/06/05 08:01:07;;;;;;;1.20;1.00;;;;;;;;;;5100757;28;20198;-74
2022/06/05 08:03:35;;;;;;;2.23;1.30;;;;;;;;;;5101450;28;20286;-74
2022/06/05 08:06:04;;;;;;;1.20;1.10;;;;;;;;;;5110240;28;20255;-73
2022/06/05 08:08:32;;;;;;;1.20;1.10;;;;;;;;;;5121493;28;20249;-74
2022/06/05 08:11:03;;;;;;;2.53;1.13;;;;;;;;;;5121658;28;20240;-74
2022/06/05 08:13:38;;;;;;;1.83;1.00;;;;;;;;;;5121419;28;20217;-73
2022/06/05 08:16:08;;;;;;;1.27;1.17;;;;;;;;;;5117371;28;20703;-74
2022/06/05 08:18:36;;;;;;;2.17;1.17;;;;;;;;;;5100786;28;20202;-73
2022/06/05 08:21:04;;;;;;;5.20;0.80;;;;;;;;;;5100540;28;20205;-74
2022/06/05 08:23:32;;;;;;;0.80;0.80;;;;;;;;;;5100684;28;20729;-74
2022/06/05 08:26:00;;;;;;;1.40;1.30;;;;;;;;;;5100795;28;20637;-74
2022/06/05 08:28:28;;;;;;;1.10;1.00;;;;;;;;;;5101217;28;20578;-74
2022/06/05 08:30:56;;;;;;;2.10;1.07;;;;;;;;;;5100805;28;20234;-74
2022/06/05 08:33:26;;;;;;;4.50;1.40;;;;;;;;;;5100628;28;20694;-74
2022/06/05 08:35:54;;;;;;;1.47;1.20;;;;;;;;;;5100528;28;20230;-74
2022/06/05 08:41:30;;;;;;;1.67;1.10;;;;;;;;;;5100309;28;20233;-74
2022/06/05 08:44:02;;;;;;;1.90;1.10;;;;;;;;;;5100218;28;20205;-74
2022/06/05 08:46:32;;;;;;;0.83;0.83;;;;;;;;;;5089081;28;20258;-72
2022/06/05 08:49:04;;;;;;;3.63;1.30;;;;;;;;;;5100225;28;20244;-73
2022/06/05 08:51:41;;;;;;;1.20;1.20;;;;;;;;;;5100077;28;20214;-73
2022/06/05 08:54:13;;;;;;;3.17;1.60;;;;;;;;;;5097099;28;20201;-73
2022/06/05 08:56:42;;;;;;;4.20;1.10;;;;;;;;;;5092881;28;20260;-73
2022/06/05 08:59:14;;;;;;;2.63;1.00;;;;;;;;;;5100393;28;20215;-73
2022/06/05 09:01:46;;;;;;;1.47;1.37;;;;;;;;;;5099976;28;20237;-73
2022/06/05 09:04:29;;;;;;;1.27;1.13;;;;;;;;;;5100838;28;20198;-74
2022/06/05 09:07:01;;;;;;;1.40;1.30;;;;;;;;;;5097202;28;20630;-73
2022/06/05 09:09:36;;;;;;;3.30;1.13;;;;;;;;;;5101905;28;20214;-73
2022/06/05 09:12:07;;;;;;;1.30;1.20;;;;;;;;;;5098660;28;20219;-73
2022/06/05 09:14:39;;;;;;;1.10;1.00;;;;;;;;;;5096909;28;20222;-73
2022/06/05 09:17:12;;;;;;;1.60;0.97;;;;;;;;;;5098503;28;20218;-73
2022/06/05 09:19:41;;;;;;;1.53;1.40;;;;;;;;;;5094124;28;20215;-73
2022/06/05 09:22:15;;;;;;;2.67;1.20;;;;;;;;;;5098770;28;20250;-73
2022/06/05 09:25:02;;;;;;;2.03;1.93;;;;;;;;;;5099071;28;20199;-69
2022/06/05 09:27:37;;;;;;;2.73;1.30;;;;;;;;;;5099552;28;20215;-69
2022/06/05 09:30:09;;;;;;;1.63;1.30;;;;;;;;;;5099399;28;20260;-70
2022/06/05 09:32:46;;;;;;;2.27;1.20;;;;;;;;;;5100823;28;20230;-68
2022/06/05 09:35:18;;;;;;;2.27;1.47;;;;;;;;;;5105492;28;20268;-67
2022/06/05 09:37:49;;;;;;;2.70;1.27;;;;;;;;;;5099529;28;20207;-68
2022/06/05 09:40:18;;;;;;;4.03;1.27;;;;;;;;;;5098746;28;20211;-68
2022/06/05 09:42:51;;;;;;;1.77;1.20;;;;;;;;;;5099208;28;20269;-67
2022/06/05 09:45:23;;;;;;;3.30;1.40;;;;;;;;;;5099128;28;20572;-69
2022/06/05 09:47:57;;;;;;;2.03;1.40;;;;;;;;;;5099549;28;20246;-69
2022/06/05 09:50:26;;;;;;;2.50;1.03;;;;;;;;;;5099447;28;20251;-68
2022/06/05 09:52:56;;;;;;;2.27;1.30;;;;;;;;;;5099017;28;20199;-69
2022/06/05 09:55:31;;;;;;;1.70;1.20;;;;;;;;;;5104656;28;20229;-68
2022/06/05 10:00:51;;;;;;;1.50;1.23;;;;;;;;;;5099250;28;20210;-69
2022/06/05 10:03:21;;;;;;;1.70;1.00;;;;;;;;;;5099113;28;20208;-70
2022/06/05 10:06:04;;;;;;;2.27;1.20;;;;;;;;;;5098452;28;20277;-69
2022/06/05 10:08:38;;;;;;;1.07;1.03;;;;;;;;;;5098731;28;20329;-69
2022/06/05 10:11:19;;;;;;;4.43;1.53;;;;;;;;;;5099006;28;20222;-69
2022/06/05 10:13:48;;;;;;;1.20;1.10;;;;;;;;;;5099139;28;20239;-69
2022/06/05 10:16:26;;;;;;;2.77;1.20;;;;;;;;;;5098351;28;20232;-68
2022/06/05 10:18:59;;;;;;;2.87;1.20;;;;;;;;;;5098889;28;20208;-67
2022/06/05 10:21:33;;;;;;;2.00;1.03;;;;;;;;;;5098192;28;20204;-68
2022/06/05 10:24:11;;;;;;;3.07;1.30;;;;;;;;;;5098162;28;20201;-67
2022/06/05 10:26:40;;;;;;;0.90;0.90;;;;;;;;;;5098852;28;20261;-67
2022/06/05 10:29:16;;;;;;;2.07;1.53;;;;;;;;;;5098650;28;20626;-68
2022/06/05 10:31:47;;;;;;;1.30;1.10;;;;;;;;;;5111158;28;20318;-67
2022/06/05 10:34:21;;;;;;;3.47;1.50;;;;;;;;;;5119158;28;20288;-67
2022/06/05 10:36:55;;;;;;;1.30;1.20;;;;;;;;;;5118404;28;20256;-69
2022/06/05 10:39:27;;;;;;;2.00;1.27;;;;;;;;;;5118451;28;20232;-67
2022/06/05 10:42:13;;;;;;;1.63;1.30;;;;;;;;;;5098538;28;20712;-74
2022/06/05 10:44:45;;;;;;;1.93;1.00;;;;;;;;;;5098012;28;20221;-70
2022/06/05 10:47:16;;;;;;;3.40;1.30;;;;;;;;;;5097994;28;20293;-74
2022/06/05 10:49:46;;;;;;;210.60;102.33;;;;;;;;;;5097964;28;20248;-70
2022/06/05 10:52:21;;;;;;;1999.90;937.57;;;;;;;;;;5097815;28;20207;-70
2022/06/05 10:55:16;;;;;;;528.23;373.20;;;;;;;;;;5092927;28;20203;-77
2022/06/05 10:57:51;;;;;;;27.23;19.73;;;;;;;;;;5090724;28;20241;-77
2022/06/05 11:00:21;;;;;;;41.73;21.93;;;;;;;;;;5084750;28;20210;-75
2022/06/05 11:03:01;;;;;;;61.33;31.20;;;;;;;;;;5097967;28;20235;-74
2022/06/05 11:05:36;;;;;;;51.63;26.23;;;;;;;;;;5097722;28;20259;-73
2022/06/05 11:08:09;;;;;;;77.67;37.47;;;;;;;;;;5097613;28;20211;-72
2022/06/05 11:13:42;;;;;;;27.63;14.00;;;;;;;;;;5097830;28;20210;-78
2022/06/05 11:16:23;;;;;;;27.47;10.73;;;;;;;;;;5097648;28;20221;-73
2022/06/05 11:18:54;;;;;;;564.97;402.47;;;;;;;;;;5085907;28;20212;-74
2022/06/05 11:21:23;;;;;;;359.63;302.93;;;;;;;;;;5097592;28;20242;-75
2022/06/05 11:23:53;;;;;;;306.33;204.63;;;;;;;;;;5097263;28;20226;-77
2022/06/05 11:26:25;;;;;;;97.90;50.08;;;;;;;;;;5114933;28;20247;-76
2022/06/05 11:28:58;;;;;;;199.80;117.63;;;;;;;;;;5118634;28;20237;-79
2022/06/05 11:31:36;;;;;;;66.50;42.30;;;;;;;;;;5118558;28;20228;-77
2022/06/05 11:34:07;;;;;;;32.97;20.07;;;;;;;;;;5116802;28;20246;-77
2022/06/05 11:36:42;;;;;;;19.85;13.00;;;;;;;;;;5117463;28;20221;-75
2022/06/05 11:39:16;;;;;;;62.77;37.43;;;;;;;;;;5117632;28;20566;-76
2022/06/05 11:41:47;;;;;;;23.10;15.60;;;;;;;;;;5099494;28;20214;-74
2022/06/05 11:44:22;;;;;;;22.92;17.27;;;;;;;;;;5097182;28;20665;-75
2022/06/05 11:46:54;;;;;;;19.73;13.20;;;;;;;;;;5097629;28;20256;-76
2022/06/05 11:49:26;;;;;;;18.10;10.43;;;;;;;;;;5097139;28;20643;-75
2022/06/05 11:51:59;;;;;;;6.03;2.90;;;;;;;;;;5097252;28;20261;-76
2022/06/05 11:54:30;;;;;;;17.87;10.33;;;;;;;;;;5091747;28;20209;-75
2022/06/05 11:57:05;;;;;;;12.73;8.47;;;;;;;;;;5091374;28;20267;-72
2022/06/05 11:59:39;;;;;;;8.37;5.90;;;;;;;;;;5097052;28;20577;-74
2022/06/05 12:02:25;;;;;;;5.43;4.30;;;;;;;;;;5097123;28;20233;-75
2022/06/05 12:04:58;;;;;;;6.50;4.43;;;;;;;;;;5084272;28;20727;-76
2022/06/05 12:07:27;;;;;;;9.20;5.50;;;;;;;;;;5097229;28;20230;-75
2022/06/05 12:09:57;;;;;;;6.50;3.70;;;;;;;;;;5096965;28;20216;-76
2022/06/05 12:12:27;;;;;;;3.43;2.50;;;;;;;;;;5097488;28;20249;-77
2022/06/05 12:15:03;;;;;;;1.60;1.50;;;;;;;;;;5097305;28;20256;-80
2022/06/05 12:17:35;;;;;;;4.47;2.53;;;;;;;;;;5096812;28;20720;-78
2022/06/05 12:20:05;;;;;;;2.27;1.80;;;;;;;;;;5096617;28;20657;-76
2022/06/05 12:22:35;;;;;;;4.87;3.13;;;;;;;;;;5096842;28;20688;-73
2022/06/05 12:25:07;;;;;;;2.57;2.37;;;;;;;;;;5097223;28;20205;-73
2022/06/05 12:27:53;;;;;;;2.50;2.30;;;;;;;;;;5097226;28;20204;-75
2022/06/05 12:30:24;;;;;;;1.80;1.70;;;;;;;;;;5096867;28;20236;-78
2022/06/05 12:32:56;;;;;;;5.63;3.60;;;;;;;;;;5097115;28;20234;-77
2022/06/05 12:35:26;;;;;;;4.67;3.10;;;;;;;;;;5096699;28;20254;-78
2022/06/05 12:37:59;;;;;;;3.57;3.20;;;;;;;;;;5096413;28;20277;-77
2022/06/05 12:40:35;;;;;;;3.73;2.63;;;;;;;;;;5096750;28;20206;-77
2022/06/05 12:43:06;;;;;;;2.57;2.10;;;;;;;;;;5096727;28;20240;-77
2022/06/05 12:45:37;;;;;;;2.47;1.80;;;;;;;;;;5097581;28;20241;-76
2022/06/05 12:48:10;;;;;;;2.27;2.07;;;;;;;;;;5100314;28;20703;-76
2022/06/05 12:50:45;;;;;;;2.33;1.97;;;;;;;;;;5100258;28;20578;-76
2022/06/05 12:53:20;;;;;;;2.08;1.88;;;;;;;;;;5100101;28;20226;-76
2022/06/05 12:55:54;;;;;;;1.98;1.77;;;;;;;;;;5096843;28;20257;-76
2022/06/05 12:58:30;;;;;;;2.80;1.80;;;;;;;;;;5100177;28;20263;-72
2022/06/05 13:01:02;;;;;;;2.47;1.60;;;;;;;;;;5100039;28;20208;-72
2022/06/05 13:03:34;;;;;;;1.60;1.50;;;;;;;;;;5100359;28;20216;-71
2022/06/05 13:06:05;;;;;;;347.20;258.57;;;;;;;;;;5099904;28;20235;-75
2022/06/05 13:08:38;;;;;;;975.95;665.20;;;;;;;;;;5099916;28;20663;-75
2022/06/05 13:11:11;;;;;;;1999.90;999.90;;;;;;;;;;5099892;28;20732;-71
2022/06/05 13:13:46;;;;;;;1718.50;869.20;;;;;;;;;;5100097;28;20240;-71
2022/06/05 13:16:36;;;;;;;858.70;563.23;;;;;;;;;;5099820;28;20252;-71
2022/06/05 13:19:09;;;;;;;304.33;140.43;;;;;;;;;;5089610;28;20255;-71
2022/06/05 13:21:41;;;;;;;218.95;110.53;;;;;;;;;;5099413;28;20207;-71
2022/06/05 13:24:14;;;;;;;36.58;22.23;;;;;;;;;;5099938;28;20214;-71
2022/06/05 13:26:48;;;;;;;43.67;20.80;;;;;;;;;;5100214;28;20222;-71
2022/06/05 13:29:24;;;;;;;148.75;63.05;;;;;;;;;;5099630;28;20205;-71
2022/06/05 13:31:59;;;;;;;60.50;29.23;;;;;;;;;;5099596;28;20225;-72
2022/06/05 13:34:51;;;;;;;5.35;3.92;;;;;;;;;;5087511;28;20209;-71
2022/06/05 13:37:22;;;;;;;1.52;1.42;;;;;;;;;;5100230;28;20228;-71
2022/06/05 13:39:55;;;;;;;1.70;1.30;;;;;;;;;;5096931;28;20202;-71
2022/06/05 13:42:25;;;;;;;1.00;1.00;;;;;;;;;;5115069;28;20296;-70
2022/06/05 13:44:57;;;;;;;618.80;296.13;;;;;;;;;;5111055;28;20229;-74
2022/06/05 13:47:35;;;;;;;470.63;345.37;;;;;;;;;;5099488;28;20232;-76
2022/06/05 13:50:09;;;;;;;1008.40;699.80;;;;;;;;;;5098600;28;20238;-75
2022/06/05 13:56:09;;;;;;;226.07;132.77;;;;;;;;;;5093080;28;20681;-74
2022/06/05 13:58:42;;;;;;;248.43;156.50;;;;;;;;;;5098210;28;20264;-73
2022/06/05 14:01:11;;;;;;;142.55;88.80;;;;;;;;;;5099287;28;20293;-71
2022/06/05 14:03:43;;;;;;;103.38;60.30;;;;;;;;;;5099096;28;20241;-70
2022/06/05 14:06:17;;;;;;;116.47;72.38;;;;;;;;;;5099242;28;20270;-67
2022/06/05 14:08:51;;;;;;;92.68;54.00;;;;;;;;;;5099465;28;20244;-67
2022/06/05 14:11:20;;;;;;;74.93;46.85;;;;;;;;;;5099041;28;20240;-67
2022/06/05 14:13:50;;;;;;;35.40;22.98;;;;;;;;;;5099098;28;20216;-71
2022/06/05 14:16:19;;;;;;;21.33;14.05;;;;;;;;;;5098751;28;20265;-71
2022/06/05 14:18:58;;;;;;;28.00;17.42;;;;;;;;;;5098617;28;20263;-71
2022/06/05 14:21:27;;;;;;;12.60;9.88;;;;;;;;;;5098521;28;20205;-70
2022/06/05 14:24:17;;;;;;;18.95;12.27;;;;;;;;;;5098379;28;20219;-71
2022/06/05 14:26:48;;;;;;;22.17;15.02;;;;;;;;;;5107822;28;20254;-71
2022/06/05 14:29:18;;;;;;;8.07;5.18;;;;;;;;;;5118716;28;20681;-71
2022/06/05 14:31:56;;;;;;;20.65;12.65;;;;;;;;;;5118858;28;20673;-72
2022/06/05 14:34:31;;;;;;;13.20;9.10;;;;;;;;;;5098892;28;20203;-71
2022/06/05 14:37:06;;;;;;;22.90;13.57;;;;;;;;;;5098681;28;20267;-72
2022/06/05 14:39:36;;;;;;;7.85;4.63;;;;;;;;;;5097885;28;20609;-71
2022/06/05 14:42:06;;;;;;;4.72;3.58;;;;;;;;;;5091623;28;20219;-70
2022/06/05 14:44:37;;;;;;;2.10;1.10;;;;;;;;;;5098381;28;20243;-71
2022/06/05 14:47:16;;;;;;;1.20;1.10;;;;;;;;;;5097934;28;20228;-70
2022/06/05 14:49:47;;;;;;;1.10;1.00;;;;;;;;;;5097817;28;20584;-71
2022/06/05 14:52:25;;;;;;;4.03;1.10;;;;;;;;;;5097976;28;20710;-71
2022/06/05 14:57:54;;;;;;;5.50;3.40;;;;;;;;;;5097763;28;20273;-71
2022/06/05 15:00:25;;;;;;;4.33;1.40;;;;;;;;;;5097741;28;20210;-71
2022/06/05 15:02:57;;;;;;;3.90;3.53;;;;;;;;;;5097929;28;20262;-73
2022/06/05 15:05:34;;;;;;;1.30;1.20;;;;;;;;;;5097265;28;20232;-73
2022/06/05 15:08:04;;;;;;;1.47;1.37;;;;;;;;;;5097640;28;20217;-71
2022/06/05 15:10:40;;;;;;;1.93;1.37;;;;;;;;;;5097772;28;20570;-71
2022/06/05 15:13:13;;;;;;;1.67;1.37;;;;;;;;;;5097581;28;20204;-72
2022/06/05 15:15:47;;;;;;;3.10;2.17;;;;;;;;;;5097712;28;20352;-72
2022/06/05 15:18:15;;;;;;;2.97;2.00;;;;;;;;;;5097397;28;20261;-70
2022/06/05 15:21:16;;;;;;;3.10;2.37;;;;;;;;;;5096786;28;20272;-71
2022/06/05 15:23:45;;;;;;;2.47;1.80;;;;;;;;;;5097226;28;20209;-70
2022/06/05 15:26:17;;;;;;;2.37;1.50;;;;;;;;;;5097490;28;20227;-71